Time;durP1;ratioP1;P1;durP2;ratioP2;P2;SDS_P1;SDS_P2;PMS_P1;PMS_P2;Temp;Humidity;BMP_temperature;BMP_pressure;BME280_temperature;BME280_humidity;BME280_pressure;Samples;Min_cycle;Max_cycle;Signal;HPM_P1;HPM_P2
2022/09/13 00:00:31;;;;;;;1.33;1.00;;;23.90;53.30;;;;;;5032616;28;20036;-71
2022/09/13 00:02:57;;;;;;;1.30;1.08;;;23.80;53.20;;;;;;5033276;28;20039;-71
2022/09/13 00:05:23;;;;;;;1.70;1.10;;;23.80;53.20;;;;;;5033082;28;20357;-69
2022/09/13 00:07:49;;;;;;;1.30;0.90;;;23.80;53.20;;;;;;5033227;28;20499;-69
2022/09/13 00:10:14;;;;;;;1.58;1.00;;;23.80;53.20;;;;;;5033192;28;20091;-69
2022/09/13 00:12:40;;;;;;;1.38;1.08;;;23.80;53.20;;;;;;5032624;28;20029;-70
2022/09/13 00:15:06;;;;;;;1.10;1.00;;;23.80;53.30;;;;;;5032919;28;20037;-69
2022/09/13 00:17:32;;;;;;;1.45;1.10;;;23.80;53.20;;;;;;5033005;28;20447;-70
2022/09/13 00:19:57;;;;;;;1.42;1.05;;;23.80;53.20;;;;;;5033026;28;20030;-70
2022/09/13 00:22:23;;;;;;;1.02;0.90;;;23.80;53.20;;;;;;5032902;28;20037;-70
2022/09/13 00:24:48;;;;;;;1.40;0.90;;;23.80;53.20;;;;;;5032917;28;20036;-70
2022/09/13 00:27:14;;;;;;;1.98;1.10;;;23.80;53.20;;;;;;5032176;28;20037;-70
2022/09/13 00:29:39;;;;;;;1.17;1.00;;;23.80;53.20;;;;;;5032782;28;20036;-70
2022/09/13 00:32:05;;;;;;;1.25;1.00;;;23.80;53.30;;;;;;5032262;28;20509;-69
2022/09/13 00:34:31;;;;;;;1.58;1.00;;;23.80;53.20;;;;;;5006600;28;20388;-70
2022/09/13 00:36:56;;;;;;;1.05;0.95;;;23.80;53.20;;;;;;5032567;28;20034;-69
2022/09/13 00:39:22;;;;;;;1.58;1.10;;;23.80;53.20;;;;;;5032584;28;20108;-69
2022/09/13 00:41:48;;;;;;;1.20;1.00;;;23.80;53.20;;;;;;5032905;28;20080;-70
2022/09/13 00:44:51;;;;;;;1.63;1.10;;;23.70;53.20;;;;;;5032442;28;20040;-70
2022/09/13 00:47:54;;;;;;;1.30;1.00;;;23.80;53.30;;;;;;5030143;28;20425;-69
2022/09/13 00:50:28;;;;;;;1.45;1.13;;;23.80;53.20;;;;;;5032192;28;20178;-69
2022/09/13 00:53:18;;;;;;;1.38;0.90;;;23.70;53.20;;;;;;5030839;28;20025;-69
2022/09/13 00:55:58;;;;;;;1.17;1.00;;;23.80;53.30;;;;;;5030534;28;20030;-70
2022/09/13 00:58:26;;;;;;;1.65;1.10;;;23.80;53.30;;;;;;5032142;28;20030;-69
2022/09/13 01:00:54;;;;;;;0.98;0.88;;;23.70;53.20;;;;;;5012401;28;20045;-70
2022/09/13 01:03:23;;;;;;;1.65;1.02;;;23.70;53.20;;;;;;5032134;28;20033;-69
2022/09/13 01:05:52;;;;;;;;;;;23.70;53.20;;;;;;5032548;28;20034;-69
2022/09/13 01:08:24;;;;;;;1.13;0.80;;;23.70;53.20;;;;;;5031593;28;20023;-69
2022/09/13 01:10:51;;;;;;;1.23;1.00;;;23.70;53.20;;;;;;5032061;28;20040;-70
2022/09/13 01:13:30;;;;;;;1.00;0.90;;;23.70;53.20;;;;;;5031958;28;20385;-70
2022/09/13 01:15:55;;;;;;;1.88;1.30;;;23.70;53.20;;;;;;5031513;28;20033;-70
2022/09/13 01:18:21;;;;;;;1.48;1.05;;;23.70;53.30;;;;;;5031927;28;20033;-70
2022/09/13 01:21:11;;;;;;;1.42;1.02;;;23.70;53.30;;;;;;5004432;28;20025;-71
2022/09/13 01:23:43;;;;;;;1.15;0.90;;;23.70;53.30;;;;;;5031842;28;20060;-69
2022/09/13 01:26:21;;;;;;;1.17;1.05;;;23.70;53.30;;;;;;5031233;28;20037;-69
2022/09/13 01:28:55;;;;;;;1.30;1.00;;;23.70;53.20;;;;;;5031287;28;20022;-69
2022/09/13 01:31:34;;;;;;;1.25;0.90;;;23.70;53.30;;;;;;5030913;28;20033;-69
2022/09/13 01:34:24;;;;;;;1.10;0.90;;;23.70;53.30;;;;;;5030655;28;20381;-69
2022/09/13 01:37:11;;;;;;;1.20;0.93;;;23.70;53.30;;;;;;5031026;28;20414;-70
2022/09/13 01:39:56;;;;;;;1.30;1.00;;;23.70;53.30;;;;;;5030705;28;20492;-69
2022/09/13 01:42:47;;;;;;;1.38;0.90;;;23.70;53.30;;;;;;5031427;28;20436;-70
2022/09/13 01:45:27;;;;;;;1.27;0.90;;;23.70;53.30;;;;;;5030810;28;20397;-69
2022/09/13 01:48:23;;;;;;;1.45;1.10;;;23.70;53.30;;;;;;5030643;28;20052;-69
2022/09/13 01:51:07;;;;;;;1.35;1.10;;;23.70;53.30;;;;;;5026481;28;20052;-68
2022/09/13 01:53:39;;;;;;;1.30;0.90;;;23.60;53.30;;;;;;5031301;28;20022;-69
2022/09/13 01:56:15;;;;;;;1.30;0.85;;;23.70;53.30;;;;;;5031308;28;20087;-71
2022/09/13 01:58:55;;;;;;;1.02;0.90;;;23.60;53.30;;;;;;5030878;28;20075;-69
2022/09/13 02:01:30;;;;;;;1.23;0.90;;;23.70;53.30;;;;;;5029138;28;20401;-69
2022/09/13 02:03:59;;;;;;;1.00;0.90;;;23.70;53.30;;;;;;5028910;28;20473;-71
2022/09/13 02:06:32;;;;;;;1.15;0.90;;;23.70;53.30;;;;;;5030844;28;20021;-69
2022/09/13 02:09:02;;;;;;;1.17;0.95;;;23.60;53.30;;;;;;5030676;28;20095;-69
2022/09/13 02:11:28;;;;;;;1.20;0.90;;;23.60;53.70;;;;;;5031118;28;20032;-69
2022/09/13 02:14:06;;;;;;;1.48;1.00;;;23.60;53.20;;;;;;5013115;28;20099;-68
2022/09/13 02:16:44;;;;;;;1.40;1.10;;;23.60;53.30;;;;;;5004928;28;20370;-69
2022/09/13 02:19:18;;;;;;;0.80;0.80;;;23.60;53.20;;;;;;5030651;28;20025;-70
2022/09/13 02:21:49;;;;;;;1.40;1.02;;;23.60;53.30;;;;;;5028943;28;20175;-70
2022/09/13 02:24:19;;;;;;;1.20;1.05;;;23.60;53.30;;;;;;5031020;28;20034;-70
2022/09/13 02:26:46;;;;;;;1.20;1.00;;;23.60;53.30;;;;;;5001961;28;20034;-69
2022/09/13 02:29:16;;;;;;;1.00;0.90;;;23.60;53.30;;;;;;5030251;28;20029;-69
2022/09/13 02:31:50;;;;;;;1.02;0.90;;;23.60;53.30;;;;;;5030332;28;20034;-70
2022/09/13 02:34:27;;;;;;;1.10;0.90;;;23.60;53.80;;;;;;5030293;28;20037;-69
2022/09/13 02:36:54;;;;;;;0.80;0.80;;;23.60;53.20;;;;;;5030187;28;20412;-70
2022/09/13 02:39:26;;;;;;;1.00;0.90;;;23.60;53.70;;;;;;5030656;28;20029;-70
2022/09/13 02:42:03;;;;;;;0.93;0.88;;;23.60;53.70;;;;;;5030579;28;20117;-70
2022/09/13 02:44:38;;;;;;;0.85;0.80;;;23.60;53.20;;;;;;5030745;28;20024;-70
2022/09/13 02:47:13;;;;;;;1.35;0.90;;;23.60;53.20;;;;;;5030503;28;20500;-70
2022/09/13 02:50:12;;;;;;;1.20;0.90;;;23.60;53.30;;;;;;5030572;28;20029;-69
2022/09/13 02:53:18;;;;;;;1.15;0.90;;;23.60;53.20;;;;;;5029610;28;20047;-69
2022/09/13 02:55:49;;;;;;;1.10;0.93;;;23.60;53.20;;;;;;5030442;28;20125;-68
2022/09/13 02:58:34;;;;;;;0.73;0.73;;;23.60;53.30;;;;;;5030527;28;20117;-70
2022/09/13 03:01:00;;;;;;;1.30;0.98;;;23.60;53.30;;;;;;5028663;28;20037;-69
2022/09/13 03:03:26;;;;;;;1.25;1.00;;;23.60;53.30;;;;;;5030393;28;20060;-69
2022/09/13 03:05:52;;;;;;;1.92;0.98;;;23.60;53.30;;;;;;5030430;28;20537;-69
2022/09/13 03:08:19;;;;;;;1.35;1.00;;;23.60;53.30;;;;;;5030438;28;20078;-69
2022/09/13 03:11:22;;;;;;;1.60;1.10;;;23.60;53.30;;;;;;5005213;28;20076;-69
2022/09/13 03:13:54;;;;;;;0.80;0.80;;;23.60;53.30;;;;;;5030373;28;20118;-69
2022/09/13 03:16:26;;;;;;;0.90;0.80;;;23.50;53.20;;;;;;5030553;28;20037;-69
2022/09/13 03:19:21;;;;;;;0.93;0.75;;;23.60;53.30;;;;;;5032558;28;20480;-70
2022/09/13 03:22:37;;;;;;;1.00;0.90;;;23.50;53.30;;;;;;5033325;28;20032;-69
2022/09/13 03:25:18;;;;;;;1.35;0.90;;;23.60;53.30;;;;;;5003647;28;20103;-69
2022/09/13 03:27:59;;;;;;;0.80;0.80;;;23.50;53.20;;;;;;5032206;28;20038;-70
2022/09/13 03:30:25;;;;;;;1.33;1.10;;;23.50;53.20;;;;;;5033276;28;20025;-68
2022/09/13 03:33:07;;;;;;;1.15;0.90;;;23.50;53.20;;;;;;5033741;28;20026;-69
2022/09/13 03:35:44;;;;;;;0.70;0.70;;;23.50;53.20;;;;;;5033307;28;20571;-70
2022/09/13 03:38:29;;;;;;;1.00;0.90;;;23.50;53.20;;;;;;5033839;28;20033;-69
2022/09/13 03:41:08;;;;;;;1.23;0.90;;;23.50;53.20;;;;;;5033570;28;20034;-68
2022/09/13 03:43:43;;;;;;;1.73;0.90;;;23.50;53.20;;;;;;5007233;28;20028;-70
2022/09/13 03:46:16;;;;;;;1.00;0.90;;;23.50;53.20;;;;;;5015316;28;20037;-69
2022/09/13 03:48:42;;;;;;;1.10;0.90;;;23.50;53.20;;;;;;5031897;28;20021;-69
2022/09/13 03:51:10;;;;;;;0.93;0.80;;;23.50;53.20;;;;;;5033512;28;20520;-70
2022/09/13 03:53:41;;;;;;;1.10;0.90;;;23.50;53.20;;;;;;5032892;28;20519;-69
2022/09/13 03:56:19;;;;;;;1.20;1.00;;;23.50;53.20;;;;;;5033456;28;20033;-69
2022/09/13 03:58:47;;;;;;;0.98;0.88;;;23.50;53.20;;;;;;5033398;28;20096;-69
2022/09/13 04:01:12;;;;;;;1.05;0.90;;;23.50;53.20;;;;;;5032870;28;20396;-69
2022/09/13 04:03:38;;;;;;;1.20;0.80;;;23.50;53.10;;;;;;5033244;28;20112;-69
2022/09/13 04:06:05;;;;;;;1.10;0.90;;;23.50;53.20;;;;;;5033153;28;20124;-69
2022/09/13 04:08:32;;;;;;;1.40;0.90;;;23.50;53.20;;;;;;5032308;28;20551;-69
2022/09/13 04:10:57;;;;;;;1.10;0.90;;;23.50;53.20;;;;;;5032881;28;20022;-69
2022/09/13 04:13:23;;;;;;;0.98;0.90;;;23.50;53.20;;;;;;5033075;28;20026;-70
2022/09/13 04:15:49;;;;;;;1.13;1.00;;;23.50;53.20;;;;;;5033196;28;20030;-69
2022/09/13 04:18:16;;;;;;;0.93;0.82;;;23.50;53.20;;;;;;5033222;28;20054;-70
2022/09/13 04:20:42;;;;;;;0.82;0.82;;;23.50;53.20;;;;;;5032812;28;20029;-68
2022/09/13 04:23:08;;;;;;;1.30;1.00;;;23.50;53.20;;;;;;5032926;28;20033;-71
2022/09/13 04:25:38;;;;;;;1.92;1.00;;;23.50;53.20;;;;;;5032797;28;20461;-69
2022/09/13 04:28:03;;;;;;;1.38;1.00;;;23.50;53.10;;;;;;5032387;28;20053;-69
2022/09/13 04:30:29;;;;;;;1.40;0.95;;;23.50;53.20;;;;;;5032401;28;20065;-69
2022/09/13 04:32:55;;;;;;;1.90;0.90;;;23.50;53.20;;;;;;5032579;28;20563;-69
2022/09/13 04:35:21;;;;;;;1.05;0.90;;;23.50;53.20;;;;;;5032700;28;20049;-69
2022/09/13 04:37:47;;;;;;;1.50;1.00;;;23.50;53.10;;;;;;5032664;28;20476;-68
2022/09/13 04:40:13;;;;;;;1.13;1.00;;;23.50;53.20;;;;;;5032295;28;20800;-69
2022/09/13 04:42:39;;;;;;;1.40;1.00;;;23.50;53.20;;;;;;5031701;28;20034;-69
2022/09/13 04:45:05;;;;;;;1.02;0.93;;;23.50;53.10;;;;;;5031449;28;20544;-69
2022/09/13 04:47:31;;;;;;;1.45;1.10;;;23.50;53.10;;;;;;5032445;28;20441;-68
2022/09/13 04:49:56;;;;;;;1.08;0.95;;;23.50;53.10;;;;;;5032386;28;20025;-69
2022/09/13 04:52:22;;;;;;;1.13;0.95;;;23.40;53.10;;;;;;5032410;28;20074;-69
2022/09/13 04:54:48;;;;;;;1.85;1.00;;;23.50;53.10;;;;;;5032260;28;20096;-69
2022/09/13 04:57:15;;;;;;;1.38;0.98;;;23.40;53.00;;;;;;5032228;28;20112;-69
2022/09/13 04:59:41;;;;;;;1.30;1.00;;;23.40;53.50;;;;;;5014647;28;20071;-69
2022/09/13 05:02:10;;;;;;;2.10;1.13;;;23.40;53.10;;;;;;5031028;28;20124;-69
2022/09/13 05:04:35;;;;;;;1.58;1.10;;;23.40;53.00;;;;;;5031351;28;20037;-69
2022/09/13 05:07:01;;;;;;;1.40;1.10;;;23.40;53.00;;;;;;5032272;28;20480;-70
2022/09/13 05:09:27;;;;;;;1.42;1.10;;;23.40;52.90;;;;;;5032060;28;20469;-70
2022/09/13 05:11:52;;;;;;;1.80;1.30;;;23.40;53.00;;;;;;5031984;28;20560;-69
2022/09/13 05:14:18;;;;;;;2.80;1.48;;;23.40;52.90;;;;;;5031799;28;20057;-69
2022/09/13 05:16:44;;;;;;;1.40;1.10;;;23.40;52.90;;;;;;5031914;28;20083;-70
2022/09/13 05:19:11;;;;;;;2.80;1.10;;;23.40;52.80;;;;;;5031898;28;20052;-69
2022/09/13 05:21:36;;;;;;;1.23;1.00;;;23.40;52.80;;;;;;5031127;28;20029;-69
2022/09/13 05:24:02;;;;;;;1.92;1.20;;;23.40;52.80;;;;;;5031826;28;20472;-69
2022/09/13 05:26:32;;;;;;;1.45;1.00;;;23.40;52.80;;;;;;5031475;28;20029;-69
2022/09/13 05:28:58;;;;;;;2.40;1.15;;;23.40;52.80;;;;;;5031604;28;20026;-69
2022/09/13 05:31:30;;;;;;;1.20;0.98;;;23.40;52.80;;;;;;5031169;28;20454;-69
2022/09/13 05:33:58;;;;;;;1.90;1.30;;;23.40;52.80;;;;;;5031570;28;20055;-70
2022/09/13 05:36:25;;;;;;;1.70;1.13;;;23.40;52.80;;;;;;5031561;28;20095;-70
2022/09/13 05:38:52;;;;;;;2.00;1.00;;;23.40;52.80;;;;;;5031093;28;20021;-70
2022/09/13 05:41:18;;;;;;;1.95;1.10;;;23.40;52.80;;;;;;5012990;28;20029;-70
2022/09/13 05:43:44;;;;;;;1.73;1.10;;;23.40;52.80;;;;;;5031416;28;20095;-69
2022/09/13 05:46:15;;;;;;;1.42;1.00;;;23.40;52.80;;;;;;5031350;28;20032;-70
2022/09/13 05:48:42;;;;;;;2.60;1.10;;;23.40;52.80;;;;;;5030901;28;20022;-69
2022/09/13 05:51:14;;;;;;;1.58;1.10;;;23.40;52.80;;;;;;5031438;28;20025;-69
2022/09/13 05:53:43;;;;;;;1.65;1.00;;;23.40;52.80;;;;;;5031121;28;20381;-69
2022/09/13 05:56:11;;;;;;;1.70;1.20;;;23.40;52.80;;;;;;5031284;28;20082;-69
2022/09/13 05:58:45;;;;;;;1.88;1.20;;;23.40;52.80;;;;;;5031281;28;20568;-69
2022/09/13 06:01:12;;;;;;;2.22;1.40;;;23.40;52.80;;;;;;5030361;28;20788;-69
2022/09/13 06:03:38;;;;;;;1.60;1.20;;;23.40;52.80;;;;;;5031075;28;20025;-69
2022/09/13 06:06:05;;;;;;;1.40;1.02;;;23.40;52.80;;;;;;5031102;28;20579;-69
2022/09/13 06:08:32;;;;;;;2.38;1.10;;;23.40;52.80;;;;;;5031010;28;20018;-70
2022/09/13 06:11:00;;;;;;;2.30;1.30;;;23.40;52.80;;;;;;5031012;28;20030;-69
2022/09/13 06:13:27;;;;;;;1.75;1.10;;;23.40;52.80;;;;;;5030856;28;20749;-69
2022/09/13 06:15:58;;;;;;;1.70;1.10;;;23.40;52.80;;;;;;5013220;28;20025;-69
2022/09/13 06:18:24;;;;;;;1.85;1.20;;;23.40;52.80;;;;;;5030975;28;20022;-69
2022/09/13 06:20:50;;;;;;;1.40;1.00;;;23.40;52.80;;;;;;5030961;28;20036;-69
2022/09/13 06:23:16;;;;;;;1.70;1.20;;;23.40;52.80;;;;;;5013122;28;20373;-69
2022/09/13 06:25:42;;;;;;;1.52;1.13;;;23.40;52.80;;;;;;5013019;28;20492;-69
2022/09/13 06:28:08;;;;;;;1.83;1.23;;;23.40;52.80;;;;;;5030849;28;20026;-69
2022/09/13 06:30:34;;;;;;;2.28;1.30;;;23.30;53.30;;;;;;5012111;28;20101;-69
2022/09/13 06:33:00;;;;;;;2.15;1.30;;;23.30;52.80;;;;;;5030592;28;20033;-69
2022/09/13 06:35:26;;;;;;;1.92;1.20;;;23.30;52.70;;;;;;5030729;28;20022;-69
2022/09/13 06:37:56;;;;;;;1.70;1.10;;;23.30;52.70;;;;;;5030924;28;20033;-69
2022/09/13 06:40:22;;;;;;;1.83;1.30;;;23.30;52.70;;;;;;5013115;28;20041;-69
2022/09/13 06:42:48;;;;;;;3.25;1.42;;;23.30;52.70;;;;;;5030578;28;20052;-69
2022/09/13 06:45:13;;;;;;;2.22;1.40;;;23.30;52.70;;;;;;5030766;28;20029;-69
2022/09/13 06:47:39;;;;;;;1.88;1.30;;;23.30;52.70;;;;;;5030623;28;20041;-69
2022/09/13 06:50:06;;;;;;;2.10;1.20;;;23.30;52.70;;;;;;5030714;28;20029;-69
2022/09/13 06:52:32;;;;;;;2.55;1.50;;;23.30;52.70;;;;;;5033984;28;20041;-69
2022/09/13 06:54:57;;;;;;;1.60;1.20;;;23.30;52.70;;;;;;5033742;28;20068;-69
2022/09/13 06:57:23;;;;;;;2.15;1.20;;;23.30;52.70;;;;;;5034562;28;20025;-69
2022/09/13 06:59:49;;;;;;;2.47;1.30;;;23.30;52.70;;;;;;5034605;28;20029;-69
2022/09/13 07:02:14;;;;;;;2.20;1.20;;;23.30;52.70;;;;;;5010238;28;20148;-70
2022/09/13 07:04:40;;;;;;;2.00;1.30;;;23.30;52.70;;;;;;5034444;28;20033;-69
2022/09/13 07:07:05;;;;;;;2.10;1.30;;;23.30;52.70;;;;;;5034347;28;20028;-69
2022/09/13 07:09:33;;;;;;;3.22;1.27;;;23.30;52.70;;;;;;5024948;28;20389;-69
2022/09/13 07:11:59;;;;;;;2.50;1.50;;;23.30;52.70;;;;;;5034298;28;20086;-69
2022/09/13 07:14:26;;;;;;;1.95;1.30;;;23.30;52.80;;;;;;5034227;28;20444;-69
2022/09/13 07:16:53;;;;;;;2.10;1.23;;;23.30;52.70;;;;;;5034201;28;20495;-69
2022/09/13 07:19:30;;;;;;;2.08;1.40;;;23.30;52.70;;;;;;5034188;28;20028;-70
2022/09/13 07:21:56;;;;;;;2.17;1.30;;;23.30;53.20;;;;;;5008037;28;20033;-69
2022/09/13 07:24:22;;;;;;;2.03;1.58;;;23.30;52.70;;;;;;5034037;28;20389;-69
2022/09/13 07:26:48;;;;;;;2.10;1.20;;;23.30;52.70;;;;;;5007632;28;20025;-70
2022/09/13 07:29:17;;;;;;;2.03;1.25;;;23.30;52.80;;;;;;5033850;28;20110;-69
2022/09/13 07:31:44;;;;;;;;;;;23.30;52.80;;;;;;5033743;28;20025;-69
2022/09/13 07:34:18;;;;;;;2.22;1.10;;;23.30;52.80;;;;;;5033915;28;19905;-69
2022/09/13 07:36:45;;;;;;;1.80;1.10;;;23.30;52.70;;;;;;5033747;28;20079;-69
2022/09/13 07:39:15;;;;;;;1.60;1.10;;;23.30;52.70;;;;;;5015968;28;20563;-69
2022/09/13 07:41:41;;;;;;;2.63;1.30;;;23.30;52.70;;;;;;5033672;28;20064;-69
2022/09/13 07:44:07;;;;;;;1.80;1.10;;;23.30;52.70;;;;;;5033723;28;20064;-69
2022/09/13 07:46:40;;;;;;;1.63;1.08;;;23.30;52.80;;;;;;5033495;28;20113;-70
2022/09/13 07:49:06;;;;;;;1.90;1.20;;;23.30;52.70;;;;;;5033206;28;20495;-69
2022/09/13 07:51:33;;;;;;;3.40;1.50;;;23.30;52.70;;;;;;5033647;28;20105;-69
2022/09/13 07:54:01;;;;;;;2.15;1.38;;;23.20;52.70;;;;;;5014498;28;20037;-69
2022/09/13 07:56:29;;;;;;;2.15;1.10;;;23.20;52.70;;;;;;5033529;28;20346;-70
2022/09/13 07:58:57;;;;;;;2.15;1.40;;;23.30;52.80;;;;;;5033077;28;20473;-69
2022/09/13 08:01:25;;;;;;;1.88;1.20;;;23.20;52.70;;;;;;5032660;28;20033;-69
2022/09/13 08:04:02;;;;;;;2.53;1.40;;;23.20;52.70;;;;;;5032582;28;20128;-70
2022/09/13 08:06:29;;;;;;;2.40;1.38;;;23.30;52.80;;;;;;5033150;28;20108;-69
2022/09/13 08:08:56;;;;;;;1.90;1.20;;;23.20;52.70;;;;;;5033246;28;20479;-69
2022/09/13 08:11:34;;;;;;;2.67;1.50;;;23.20;52.70;;;;;;5032935;28;20435;-69
2022/09/13 08:14:01;;;;;;;2.22;1.13;;;23.30;52.80;;;;;;5014920;28;20037;-68
2022/09/13 08:16:28;;;;;;;2.33;1.30;;;23.20;52.70;;;;;;5033190;28;20060;-69
2022/09/13 08:18:56;;;;;;;1.85;1.25;;;23.20;52.80;;;;;;5033113;28;20032;-69
2022/09/13 08:21:23;;;;;;;2.22;1.40;;;23.20;52.80;;;;;;5015160;28;20057;-69
2022/09/13 08:23:52;;;;;;;1.77;1.17;;;23.20;52.80;;;;;;5032940;28;20052;-69
2022/09/13 08:26:18;;;;;;;2.70;1.42;;;23.20;52.80;;;;;;5032834;28;20071;-69
2022/09/13 08:28:43;;;;;;;1.60;1.10;;;23.20;52.80;;;;;;5032859;28;20029;-69
2022/09/13 08:31:21;;;;;;;1.80;1.30;;;23.20;52.80;;;;;;5032286;28;20030;-69
2022/09/13 08:33:49;;;;;;;2.47;1.50;;;23.20;52.90;;;;;;5032764;28;20480;-69
2022/09/13 08:36:16;;;;;;;2.47;1.27;;;23.20;52.80;;;;;;5032201;28;20105;-69
2022/09/13 08:38:59;;;;;;;2.17;1.30;;;23.20;52.80;;;;;;5030933;28;20029;-69
2022/09/13 08:41:40;;;;;;;2.13;1.35;;;23.20;52.90;;;;;;5032489;28;20037;-69
2022/09/13 08:44:25;;;;;;;2.75;1.50;;;23.20;52.90;;;;;;5032643;28;20045;-69
2022/09/13 08:47:10;;;;;;;2.80;1.42;;;23.20;52.90;;;;;;5031038;28;20040;-69
2022/09/13 08:49:42;;;;;;;2.38;1.35;;;23.10;52.90;;;;;;5032203;28;20034;-69
2022/09/13 08:52:27;;;;;;;2.20;1.42;;;23.20;53.00;;;;;;5032355;28;20025;-69
2022/09/13 08:54:54;;;;;;;2.22;1.40;;;23.20;53.00;;;;;;5031867;28;20072;-69
2022/09/13 08:57:37;;;;;;;1.88;1.27;;;23.10;53.00;;;;;;5032266;28;20457;-69
2022/09/13 09:00:15;;;;;;;2.78;1.48;;;23.10;53.00;;;;;;5031299;28;20044;-69
2022/09/13 09:02:54;;;;;;;2.95;1.50;;;23.20;53.10;;;;;;5051679;28;20037;-69
2022/09/13 09:05:26;;;;;;;2.40;1.35;;;23.20;53.10;;;;;;5050906;28;20112;-69
2022/09/13 09:07:56;;;;;;;1.77;1.20;;;23.10;53.10;;;;;;5051744;28;20032;-70
2022/09/13 09:10:32;;;;;;;2.63;1.50;;;23.10;53.10;;;;;;5051302;28;20476;-69
2022/09/13 09:13:30;;;;;;;4.07;1.60;;;23.20;53.20;;;;;;5050983;28;20025;-69
2022/09/13 09:16:06;;;;;;;3.65;1.40;;;23.10;53.10;;;;;;5051357;28;20080;-69
2022/09/13 09:18:36;;;;;;;2.80;1.50;;;23.10;53.10;;;;;;5051650;28;20422;-69
2022/09/13 09:21:03;;;;;;;2.40;1.40;;;23.10;53.20;;;;;;5051021;28;20484;-69
2022/09/13 09:23:53;;;;;;;2.72;1.50;;;23.10;53.20;;;;;;5051593;28;20024;-69
2022/09/13 09:26:30;;;;;;;2.38;1.48;;;23.10;53.20;;;;;;5051800;28;20037;-69
2022/09/13 09:29:07;;;;;;;2.45;1.40;;;23.10;53.20;;;;;;5022471;28;20029;-70
2022/09/13 09:31:51;;;;;;;2.30;1.52;;;23.10;53.20;;;;;;5038387;28;20857;-69
2022/09/13 09:34:22;;;;;;;2.92;1.60;;;23.10;53.50;;;;;;5031530;28;20033;-69
2022/09/13 09:37:23;;;;;;;2.55;1.42;;;23.10;53.20;;;;;;5031509;28;20039;-69
2022/09/13 09:40:03;;;;;;;2.65;1.48;;;23.10;53.30;;;;;;4996681;28;20033;-69
2022/09/13 09:42:31;;;;;;;;;;;23.10;53.20;;;;;;5030003;28;20033;-68
2022/09/13 09:45:04;;;;;;;2.30;1.42;;;23.10;53.30;;;;;;5031333;28;20462;-68
2022/09/13 09:47:44;;;;;;;1.92;1.30;;;23.10;53.20;;;;;;5030830;28;20025;-69
2022/09/13 09:50:16;;;;;;;2.30;1.30;;;23.10;53.30;;;;;;5031155;28;20434;-69
2022/09/13 09:53:46;;;;;;;2.65;1.45;;;23.10;53.30;;;;;;5030681;28;20108;-69
2022/09/13 09:56:29;;;;;;;2.30;1.48;;;23.10;53.30;;;;;;4914056;29;20095;-69
2022/09/13 09:58:55;;;;;;;2.85;1.48;;;23.10;53.30;;;;;;5030115;28;20104;-68
2022/09/13 10:01:27;;;;;;;2.58;1.40;;;23.20;53.40;;;;;;5030484;28;20175;-69
2022/09/13 10:04:07;;;;;;;2.22;1.40;;;23.10;53.30;;;;;;5029406;28;20026;-69
2022/09/13 10:06:34;;;;;;;2.92;1.60;;;23.10;53.40;;;;;;5030710;28;20036;-69
2022/09/13 10:09:03;;;;;;;2.60;1.40;;;23.10;53.30;;;;;;5030905;28;20028;-69
2022/09/13 10:11:49;;;;;;;2.13;1.30;;;23.10;53.40;;;;;;5031064;28;20825;-69
2022/09/13 10:14:37;;;;;;;1.80;1.13;;;23.10;53.40;;;;;;5030651;28;20084;-69
2022/09/13 10:17:15;;;;;;;3.25;1.38;;;23.10;53.40;;;;;;5029498;28;20025;-69
2022/09/13 10:20:00;;;;;;;1.63;1.20;;;23.10;53.40;;;;;;5030811;28;20036;-69
2022/09/13 10:22:28;;;;;;;2.28;1.30;;;23.10;53.40;;;;;;5031129;28;20025;-69
2022/09/13 10:24:54;;;;;;;2.08;1.20;;;23.10;53.40;;;;;;5004678;28;20504;-69
2022/09/13 10:27:30;;;;;;;2.40;1.50;;;23.10;53.40;;;;;;5030638;28;20030;-70
2022/09/13 10:29:59;;;;;;;2.72;1.40;;;23.20;53.40;;;;;;5029518;28;20022;-70
2022/09/13 10:32:26;;;;;;;2.80;1.60;;;23.20;53.40;;;;;;5020539;28;20030;-69
2022/09/13 10:34:53;;;;;;;3.33;1.40;;;23.20;53.40;;;;;;5030906;28;20477;-69
2022/09/13 10:37:31;;;;;;;1.90;1.15;;;23.20;53.40;;;;;;5030658;28;20045;-69
2022/09/13 10:40:07;;;;;;;2.72;1.17;;;23.20;53.40;;;;;;5013161;28;20037;-70
2022/09/13 10:42:34;;;;;;;2.08;1.20;;;23.20;53.40;;;;;;5028346;28;20034;-70
2022/09/13 10:45:03;;;;;;;3.33;1.23;;;23.20;53.40;;;;;;5030814;28;20024;-70
2022/09/13 10:47:42;;;;;;;2.42;1.48;;;23.10;53.40;;;;;;5030733;28;20167;-69
2022/09/13 10:50:28;;;;;;;3.67;1.40;;;23.20;53.50;;;;;;5029712;28;20032;-70
2022/09/13 10:52:58;;;;;;;2.38;1.30;;;23.20;53.50;;;;;;5028549;28;20500;-71
2022/09/13 10:55:23;;;;;;;2.28;1.20;;;23.20;53.50;;;;;;5030748;28;20111;-69
2022/09/13 10:57:50;;;;;;;3.35;1.50;;;23.20;53.40;;;;;;5020671;28;20484;-71
2022/09/13 11:00:31;;;;;;;1.70;1.15;;;23.20;53.40;;;;;;5010922;28;20025;-70
2022/09/13 11:03:27;;;;;;;1.92;1.23;;;23.20;53.50;;;;;;5030298;28;20049;-69
2022/09/13 11:06:41;;;;;;;1.98;1.17;;;23.20;53.40;;;;;;5030512;28;20088;-69
2022/09/13 11:09:13;;;;;;;2.10;1.20;;;23.20;53.40;;;;;;5024907;28;20480;-69
2022/09/13 11:11:48;;;;;;;2.70;1.30;;;23.20;53.40;;;;;;5030352;28;20049;-70
2022/09/13 11:14:31;;;;;;;2.00;1.10;;;23.20;53.40;;;;;;5030014;28;20079;-69
2022/09/13 11:17:34;;;;;;;2.40;1.38;;;23.20;53.40;;;;;;5030356;28;20504;-70
2022/09/13 11:20:09;;;;;;;2.10;1.20;;;23.20;53.40;;;;;;5029079;28;20493;-69
2022/09/13 11:23:06;;;;;;;2.10;1.17;;;23.30;53.40;;;;;;5029435;28;20044;-71
2022/09/13 11:25:42;;;;;;;2.15;1.15;;;23.30;53.40;;;;;;5028595;28;20021;-71
2022/09/13 11:28:27;;;;;;;2.30;1.20;;;23.30;53.40;;;;;;5030166;28;20029;-70
2022/09/13 11:31:26;;;;;;;2.33;1.20;;;23.30;53.50;;;;;;5029728;28;20084;-69
2022/09/13 11:34:15;;;;;;;2.65;1.20;;;23.30;53.50;;;;;;5030033;28;20030;-71
2022/09/13 11:36:49;;;;;;;;;;;23.30;53.40;;;;;;5030485;28;20470;-69
2022/09/13 11:39:37;;;;;;;1.92;1.30;;;23.30;53.40;;;;;;5032594;28;19916;-69
2022/09/13 11:42:06;;;;;;;2.25;1.20;;;23.30;53.40;;;;;;5032990;28;20026;-69
2022/09/13 11:45:00;;;;;;;1.60;1.05;;;23.30;53.40;;;;;;5032776;28;20029;-69
2022/09/13 11:47:38;;;;;;;2.42;1.30;;;23.30;53.40;;;;;;5033496;28;20061;-69
2022/09/13 11:50:24;;;;;;;1.92;1.20;;;23.30;53.40;;;;;;5033670;28;20084;-69
2022/09/13 11:53:11;;;;;;;2.00;1.20;;;23.30;53.40;;;;;;5033304;28;20669;-69
2022/09/13 11:55:50;;;;;;;1.83;1.08;;;23.30;53.50;;;;;;5033466;28;20140;-69
2022/09/13 11:58:22;;;;;;;;;;;23.30;53.40;;;;;;5033656;28;20025;-69
2022/09/13 12:00:52;;;;;;;2.10;1.00;;;23.30;53.40;;;;;;5032886;28;19920;-69
2022/09/13 12:03:41;;;;;;;1.65;1.20;;;23.30;53.30;;;;;;5033360;28;20047;-69
2022/09/13 12:06:24;;;;;;;1.65;1.10;;;23.30;53.40;;;;;;5033314;28;20095;-69
2022/09/13 12:08:56;;;;;;;1.98;1.20;;;23.30;53.50;;;;;;5033240;28;20122;-69
2022/09/13 12:11:28;;;;;;;1.55;1.00;;;23.30;53.40;;;;;;5033238;28;20029;-69
2022/09/13 12:14:03;;;;;;;2.17;1.00;;;23.30;53.40;;;;;;5033024;28;20121;-69
2022/09/13 12:16:45;;;;;;;2.67;1.10;;;23.30;53.40;;;;;;5033182;28;20029;-69
2022/09/13 12:19:28;;;;;;;1.42;1.08;;;23.30;53.40;;;;;;5032939;28;20035;-69
2022/09/13 12:21:56;;;;;;;2.08;1.30;;;23.30;53.30;;;;;;5031749;28;20029;-69
2022/09/13 12:24:43;;;;;;;1.60;1.00;;;23.30;53.30;;;;;;5032714;28;20436;-69
2022/09/13 12:27:24;;;;;;;2.78;1.15;;;23.40;53.40;;;;;;5032463;28;20035;-69
2022/09/13 12:29:55;;;;;;;1.17;0.90;;;23.40;53.30;;;;;;5033017;28;20029;-69
2022/09/13 12:32:22;;;;;;;1.98;1.20;;;23.40;53.30;;;;;;5031396;28;20431;-70
2022/09/13 12:35:08;;;;;;;2.17;1.20;;;23.40;53.30;;;;;;5032805;28;20076;-69
2022/09/13 12:38:05;;;;;;;1.98;1.10;;;23.40;53.30;;;;;;5032788;28;20029;-70
2022/09/13 12:41:05;;;;;;;1.55;0.98;;;23.40;53.30;;;;;;5032636;28;20079;-69
2022/09/13 12:44:00;;;;;;;1.85;1.15;;;23.40;53.30;;;;;;5023768;28;20029;-69
2022/09/13 12:46:53;;;;;;;1.50;0.90;;;23.40;53.30;;;;;;5032225;28;20025;-69
2022/09/13 12:49:31;;;;;;;1.70;1.10;;;23.40;53.30;;;;;;5030769;28;20121;-69
2022/09/13 12:52:08;;;;;;;1.45;0.80;;;23.40;53.30;;;;;;5032545;28;20120;-70
2022/09/13 12:54:43;;;;;;;1.80;1.00;;;23.40;53.30;;;;;;5013828;28;20501;-71
2022/09/13 12:57:34;;;;;;;2.30;1.15;;;23.40;53.30;;;;;;5031967;28;20385;-69
2022/09/13 13:00:20;;;;;;;1.67;0.98;;;23.40;53.30;;;;;;5030332;28;20397;-71
2022/09/13 13:03:14;;;;;;;2.22;1.17;;;23.40;53.30;;;;;;5014102;28;20045;-69
2022/09/13 13:06:06;;;;;;;2.08;1.20;;;23.40;53.30;;;;;;5031259;28;20095;-69
2022/09/13 13:08:33;;;;;;;1.95;1.10;;;23.40;53.30;;;;;;5028291;28;20041;-69
2022/09/13 13:11:00;;;;;;;1.73;1.00;;;23.40;53.20;;;;;;5031409;28;20034;-70
2022/09/13 13:13:51;;;;;;;2.50;1.25;;;23.40;53.20;;;;;;5031138;28;20021;-70
2022/09/13 13:16:23;;;;;;;1.55;1.10;;;23.40;53.20;;;;;;5031679;28;20037;-69
2022/09/13 13:18:51;;;;;;;1.40;0.93;;;23.40;53.20;;;;;;5031446;28;20053;-69
2022/09/13 13:21:32;;;;;;;1.63;0.95;;;23.40;53.20;;;;;;5031774;28;20071;-71